createdAt,value
2018-08-31T00:02:11.733Z,9.27
2018-08-31T00:04:51.705Z,10.10
2018-08-31T00:07:32.459Z,9.67
2018-08-31T00:12:45.186Z,9.53
2018-08-31T00:15:14.138Z,8.83
2018-08-31T00:17:46.267Z,9.37
2018-08-31T00:20:15.790Z,9.83
2018-08-31T00:22:45.176Z,10.67
2018-08-31T00:26:29.390Z,10.70
2018-08-31T00:29:41.530Z,11.37
2018-08-31T00:33:39.119Z,10.40
2018-08-31T00:40:23.671Z,11.60
2018-08-31T00:45:11.192Z,10.63
2018-08-31T00:47:41.471Z,12.50
2018-08-31T00:50:10.539Z,11.97
2018-08-31T00:52:39.503Z,11.53
2018-08-31T00:55:08.986Z,12.43
2018-08-31T00:57:37.877Z,12.00
2018-08-31T01:00:07.153Z,11.53
2018-08-31T01:02:36.434Z,11.33
2018-08-31T01:05:05.412Z,12.03
2018-08-31T01:07:34.398Z,11.70
2018-08-31T01:10:03.321Z,10.70
2018-08-31T01:12:32.229Z,11.07
2018-08-31T01:15:01.253Z,11.97
2018-08-31T01:17:30.596Z,11.37
2018-08-31T01:19:59.675Z,11.10
2018-08-31T01:22:28.622Z,13.03
2018-08-31T01:24:58.086Z,12.10
2018-08-31T01:27:26.894Z,11.40
2018-08-31T01:29:55.953Z,11.57
2018-08-31T01:32:25.268Z,11.57
2018-08-31T01:34:54.275Z,11.63
2018-08-31T01:37:26.111Z,11.73
2018-08-31T01:39:55.180Z,12.60
2018-08-31T01:42:27.671Z,12.20
2018-08-31T01:44:56.643Z,12.27
2018-08-31T01:47:31.362Z,12.40
2018-08-31T01:50:00.461Z,11.73
2018-08-31T01:52:30.632Z,12.57
2018-08-31T01:54:59.481Z,13.10
2018-08-31T01:57:31.929Z,13.70
2018-08-31T02:00:01.421Z,13.27
2018-08-31T02:02:30.463Z,14.90
2018-08-31T02:04:59.468Z,14.03
2018-08-31T02:07:28.448Z,14.50
2018-08-31T02:09:57.444Z,13.93
2018-08-31T02:12:26.412Z,13.50
2018-08-31T02:14:56.944Z,13.77
2018-08-31T02:17:25.796Z,12.73
2018-08-31T02:19:56.903Z,13.10
2018-08-31T02:22:25.878Z,13.97
2018-08-31T02:24:54.766Z,13.80
2018-08-31T02:27:25.149Z,12.10
2018-08-31T02:29:54.245Z,12.53
2018-08-31T02:32:23.691Z,11.97
2018-08-31T02:34:53.664Z,12.83
2018-08-31T02:37:22.802Z,12.20
2018-08-31T02:39:51.884Z,11.33
2018-08-31T02:42:21.214Z,12.77
2018-08-31T02:44:50.212Z,11.90
2018-08-31T02:47:19.300Z,11.30
2018-08-31T02:49:48.734Z,12.73
2018-08-31T02:52:17.734Z,12.40
2018-08-31T02:54:46.713Z,11.80
2018-08-31T02:57:16.296Z,11.70
2018-08-31T02:59:45.261Z,11.93
2018-08-31T03:02:14.336Z,12.70
2018-08-31T03:04:43.908Z,12.30
2018-08-31T03:07:12.918Z,12.20
2018-08-31T03:09:41.976Z,11.73
2018-08-31T03:12:11.355Z,11.40
2018-08-31T03:14:40.277Z,11.47
2018-08-31T03:17:09.565Z,11.90
2018-08-31T03:19:38.651Z,13.27
2018-08-31T03:22:07.659Z,11.60
2018-08-31T03:24:36.960Z,11.70
2018-08-31T03:27:06.356Z,11.97
2018-08-31T03:29:38.827Z,11.97
2018-08-31T03:32:07.899Z,11.97
2018-08-31T03:34:36.941Z,12.53
2018-08-31T03:37:06.044Z,11.53
2018-08-31T03:39:35.713Z,11.40
2018-08-31T03:42:04.579Z,11.57
2018-08-31T03:44:33.621Z,11.20
2018-08-31T03:47:03.006Z,11.93
2018-08-31T03:49:31.958Z,12.07
2018-08-31T03:52:00.854Z,11.20
2018-08-31T03:54:30.268Z,12.73
2018-08-31T03:56:59.254Z,12.83
2018-08-31T03:59:28.185Z,11.63
2018-08-31T04:01:57.547Z,11.70
2018-08-31T04:04:26.550Z,12.00
2018-08-31T04:06:55.457Z,11.63
2018-08-31T04:09:24.532Z,11.57
2018-08-31T04:11:53.657Z,11.13
2018-08-31T04:14:22.689Z,11.37
2018-08-31T04:16:52.090Z,11.73
2018-08-31T04:19:21.049Z,11.83
2018-08-31T04:21:50.159Z,11.53
2018-08-31T04:24:19.511Z,12.40
2018-08-31T04:26:48.525Z,11.57
2018-08-31T04:29:17.634Z,12.53
2018-08-31T04:31:47.253Z,11.73
2018-08-31T04:34:16.492Z,11.53
2018-08-31T04:36:45.616Z,11.93
2018-08-31T04:39:15.170Z,11.93
2018-08-31T04:41:44.790Z,12.23
2018-08-31T04:44:13.853Z,12.27
2018-08-31T04:46:43.221Z,11.73
2018-08-31T04:49:12.097Z,11.23
2018-08-31T04:51:41.045Z,11.60
2018-08-31T04:54:10.073Z,10.90
2018-08-31T04:56:38.981Z,11.73
2018-08-31T04:59:08.883Z,17.17
2018-08-31T05:01:38.121Z,12.03
2018-08-31T05:04:07.278Z,14.60
2018-08-31T05:06:36.550Z,14.80
2018-08-31T05:09:07.893Z,54.20
2018-08-31T05:11:36.924Z,15.80
2018-08-31T05:14:06.111Z,26.23
2018-08-31T05:16:35.075Z,11.75
2018-08-31T05:19:04.312Z,11.57
2018-08-31T05:21:33.352Z,11.63
2018-08-31T05:24:02.454Z,11.47
2018-08-31T05:26:31.476Z,11.93
2018-08-31T05:29:00.728Z,10.83
2018-08-31T05:31:30.410Z,11.10
2018-08-31T05:33:59.483Z,10.93
2018-08-31T05:36:28.437Z,11.80
2018-08-31T05:38:57.404Z,12.73
2018-08-31T05:41:26.431Z,12.10
2018-08-31T05:43:56.344Z,11.57
2018-08-31T05:46:25.788Z,12.00
2018-08-31T05:48:54.633Z,12.37
2018-08-31T05:51:23.600Z,11.30
2018-08-31T05:53:52.547Z,10.53
2018-08-31T05:56:21.553Z,11.03
2018-08-31T05:58:50.427Z,11.63
2018-08-31T06:01:19.699Z,11.07
2018-08-31T06:03:48.540Z,10.23
2018-08-31T06:06:18.538Z,9.70
2018-08-31T06:08:47.818Z,10.70
2018-08-31T06:11:16.832Z,10.57
2018-08-31T06:13:45.902Z,12.33
2018-08-31T06:16:15.479Z,10.07
2018-08-31T06:18:44.439Z,10.63
2018-08-31T06:21:13.243Z,10.18
2018-08-31T06:23:42.273Z,10.70
2018-08-31T06:26:11.282Z,10.60
2018-08-31T06:28:40.261Z,10.13
2018-08-31T06:31:09.426Z,10.75
2018-08-31T06:33:38.462Z,10.30
2018-08-31T06:36:07.490Z,10.50
2018-08-31T06:38:36.363Z,10.95
2018-08-31T06:41:05.311Z,10.45
2018-08-31T06:43:34.333Z,10.70
2018-08-31T06:46:04.640Z,11.08
2018-08-31T06:48:33.622Z,10.95
2018-08-31T06:51:02.773Z,10.32
2018-08-31T06:53:31.856Z,10.93
2018-08-31T06:56:00.799Z,11.35
2018-08-31T06:58:29.668Z,10.48
2018-08-31T07:00:58.988Z,9.83
2018-08-31T07:03:27.921Z,9.70
2018-08-31T07:05:56.958Z,9.65
2018-08-31T07:08:26.506Z,10.63
2018-08-31T07:10:55.382Z,9.05
2018-08-31T07:13:24.233Z,10.08
2018-08-31T07:15:53.116Z,9.35
2018-08-31T07:18:22.042Z,10.18
2018-08-31T07:20:50.962Z,10.03
2018-08-31T07:23:20.389Z,9.78
2018-08-31T07:25:49.342Z,9.85
2018-08-31T07:28:18.230Z,10.25
2018-08-31T07:30:47.190Z,9.55
2018-08-31T07:33:16.131Z,9.73
2018-08-31T07:35:45.064Z,10.18
2018-08-31T07:38:14.301Z,10.03
2018-08-31T07:40:43.222Z,11.38
2018-08-31T07:43:12.273Z,9.50
2018-08-31T07:45:41.479Z,10.28
2018-08-31T07:48:10.720Z,9.65
2018-08-31T07:50:39.585Z,10.15
2018-08-31T07:53:08.528Z,9.58
2018-08-31T07:55:37.345Z,10.82
2018-08-31T07:58:06.648Z,9.10
2018-08-31T08:00:35.685Z,9.43
2018-08-31T08:03:04.900Z,9.05
2018-08-31T08:05:33.893Z,9.23
2018-08-31T08:08:02.818Z,9.70
2018-08-31T08:10:31.711Z,9.03
2018-08-31T08:13:00.681Z,9.25
2018-08-31T08:15:29.840Z,10.05
2018-08-31T08:17:58.861Z,9.35
2018-08-31T08:20:27.859Z,9.58
2018-08-31T08:22:56.828Z,8.55
2018-08-31T08:25:25.762Z,9.58
2018-08-31T08:27:54.689Z,10.10
2018-08-31T08:30:24.062Z,9.78
2018-08-31T08:32:53.034Z,10.18
2018-08-31T08:35:22.238Z,9.28
2018-08-31T08:37:51.451Z,8.50
2018-08-31T08:40:20.467Z,9.00
2018-08-31T08:42:49.325Z,9.63
2018-08-31T08:45:18.614Z,8.65
2018-08-31T08:47:47.440Z,8.88
2018-08-31T08:50:16.466Z,17.57
2018-08-31T08:52:46.934Z,10.88
2018-08-31T08:55:15.803Z,9.30
2018-08-31T08:57:44.835Z,9.13
2018-08-31T09:00:13.804Z,9.35
2018-08-31T09:02:42.702Z,13.80
2018-08-31T09:05:11.545Z,10.25
2018-08-31T09:07:40.489Z,8.40
2018-08-31T09:10:09.618Z,8.75
2018-08-31T09:12:38.744Z,9.63
2018-08-31T09:15:07.953Z,8.10
2018-08-31T09:17:36.945Z,9.28
2018-08-31T09:20:06.170Z,9.18
2018-08-31T09:22:35.408Z,9.03
2018-08-31T09:25:04.477Z,8.45
2018-08-31T09:27:34.396Z,9.28
2018-08-31T09:30:03.747Z,8.48
2018-08-31T09:32:33.770Z,8.28
2018-08-31T09:35:02.809Z,8.78
2018-08-31T09:37:31.921Z,9.13
2018-08-31T09:40:00.941Z,8.18
2018-08-31T09:42:29.792Z,8.85
2018-08-31T09:44:59.120Z,7.87
2018-08-31T09:47:27.998Z,9.18
2018-08-31T09:49:56.973Z,8.13
2018-08-31T09:52:26.001Z,8.35
2018-08-31T09:54:54.927Z,7.95
2018-08-31T09:57:23.976Z,8.65
2018-08-31T09:59:52.963Z,8.23
2018-08-31T10:02:27.062Z,8.58
2018-08-31T10:04:56.356Z,8.08
2018-08-31T10:07:25.298Z,7.65
2018-08-31T10:09:54.328Z,8.20
2018-08-31T10:12:23.827Z,8.25
2018-08-31T10:14:52.730Z,8.00
2018-08-31T10:17:21.665Z,8.60
2018-08-31T10:19:50.613Z,8.30
2018-08-31T10:22:19.741Z,8.25
2018-08-31T10:24:48.760Z,8.13
2018-08-31T10:27:18.137Z,8.05
2018-08-31T10:29:47.207Z,8.85
2018-08-31T10:32:16.211Z,8.10
2018-08-31T10:34:45.458Z,8.40
2018-08-31T10:37:14.390Z,8.43
2018-08-31T10:39:43.297Z,9.55
2018-08-31T10:42:12.939Z,9.05
2018-08-31T10:44:41.850Z,8.98
2018-08-31T10:47:10.782Z,8.38
2018-08-31T10:49:39.670Z,9.10
2018-08-31T10:52:08.600Z,7.92
2018-08-31T10:54:37.713Z,8.48
2018-08-31T10:57:07.288Z,7.85
2018-08-31T10:59:36.166Z,8.25
2018-08-31T11:02:05.097Z,8.35
2018-08-31T11:04:34.119Z,7.35
2018-08-31T11:07:03.172Z,7.83
2018-08-31T11:09:32.217Z,8.43
2018-08-31T11:12:01.641Z,8.25
2018-08-31T11:14:30.644Z,7.90
2018-08-31T11:16:59.649Z,7.67
2018-08-31T11:19:28.600Z,7.17
2018-08-31T11:21:57.780Z,8.70
2018-08-31T11:24:26.821Z,7.97
2018-08-31T11:26:56.280Z,7.78
2018-08-31T11:29:25.367Z,7.58
2018-08-31T11:31:54.475Z,6.95
2018-08-31T11:34:23.882Z,7.15
2018-08-31T11:36:52.796Z,6.65
2018-08-31T11:39:21.796Z,6.83
2018-08-31T11:41:51.363Z,6.85
2018-08-31T11:44:20.221Z,7.22
2018-08-31T11:46:49.194Z,7.30
2018-08-31T11:49:18.070Z,6.10
2018-08-31T11:51:46.938Z,6.28
2018-08-31T11:54:15.892Z,6.45
2018-08-31T11:56:44.964Z,6.67
2018-08-31T11:59:13.774Z,6.85
2018-08-31T12:01:42.705Z,6.40
2018-08-31T12:04:12.176Z,7.15
2018-08-31T12:06:41.285Z,6.47
2018-08-31T12:09:10.900Z,7.00
2018-08-31T12:11:40.275Z,6.40
2018-08-31T12:14:09.136Z,6.42
2018-08-31T12:16:38.105Z,6.45
2018-08-31T12:19:07.147Z,6.53
2018-08-31T12:21:36.107Z,7.20
2018-08-31T12:24:05.235Z,6.08
2018-08-31T12:26:34.296Z,6.87
2018-08-31T12:29:03.512Z,7.22
2018-08-31T12:31:32.478Z,6.95
2018-08-31T12:34:01.413Z,6.67
2018-08-31T12:36:30.452Z,6.45
2018-08-31T12:38:59.352Z,8.18
2018-08-31T12:41:28.319Z,7.55
2018-08-31T12:43:57.310Z,7.20
2018-08-31T12:46:26.159Z,6.72
2018-08-31T12:48:55.321Z,7.25
2018-08-31T12:51:24.479Z,6.33
2018-08-31T12:53:53.389Z,6.90
2018-08-31T12:56:22.348Z,6.83
2018-08-31T12:58:51.248Z,7.03
2018-08-31T13:01:20.088Z,6.60
2018-08-31T13:03:49.064Z,7.30
2018-08-31T13:06:18.069Z,6.90
2018-08-31T13:08:47.014Z,6.37
2018-08-31T13:11:15.902Z,6.65
2018-08-31T13:13:45.100Z,7.45
2018-08-31T13:16:14.050Z,6.97
2018-08-31T13:18:43.325Z,6.92
2018-08-31T13:21:12.341Z,7.40
2018-08-31T13:23:41.417Z,7.40
2018-08-31T13:26:10.458Z,7.83
2018-08-31T13:28:39.295Z,7.40
2018-08-31T13:31:08.249Z,7.03
2018-08-31T13:33:37.691Z,6.45
2018-08-31T13:36:06.824Z,7.37
2018-08-31T13:38:35.644Z,7.75
2018-08-31T13:41:05.172Z,7.25
2018-08-31T13:43:34.136Z,7.30
2018-08-31T13:46:03.299Z,7.33
2018-08-31T13:48:32.659Z,7.42
2018-08-31T13:51:01.604Z,7.62
2018-08-31T13:53:30.370Z,7.00
2018-08-31T13:55:59.725Z,6.50
2018-08-31T13:58:28.737Z,6.92
2018-08-31T14:00:57.681Z,7.22
2018-08-31T14:03:26.753Z,6.78
2018-08-31T14:05:55.736Z,7.17
2018-08-31T14:08:24.548Z,8.05
2018-08-31T14:10:54.091Z,7.83
2018-08-31T14:13:23.060Z,7.55
2018-08-31T14:15:52.127Z,7.17
2018-08-31T14:18:21.562Z,7.45
2018-08-31T14:20:50.397Z,7.25
2018-08-31T14:23:19.457Z,6.30
2018-08-31T14:25:48.854Z,7.05
2018-08-31T14:28:17.841Z,7.25
2018-08-31T14:30:46.899Z,7.05
2018-08-31T14:33:16.341Z,7.22
2018-08-31T14:35:45.292Z,8.50
2018-08-31T14:38:14.403Z,7.25
2018-08-31T14:40:43.403Z,7.87
2018-08-31T14:43:12.371Z,7.42
2018-08-31T14:45:41.373Z,7.85
2018-08-31T14:48:11.848Z,7.50
2018-08-31T14:50:40.968Z,6.92
2018-08-31T14:53:09.812Z,7.87
2018-08-31T14:55:39.387Z,7.70
2018-08-31T14:58:08.361Z,7.85
2018-08-31T15:00:37.374Z,6.90
2018-08-31T15:03:06.416Z,7.90
2018-08-31T15:05:35.448Z,8.50
2018-08-31T15:08:04.370Z,8.40
2018-08-31T15:10:33.533Z,7.78
2018-08-31T15:13:02.597Z,7.83
2018-08-31T15:15:31.506Z,7.58
2018-08-31T15:18:00.931Z,10.18
2018-08-31T15:20:29.929Z,9.45
2018-08-31T15:22:58.868Z,8.63
2018-08-31T15:25:28.330Z,6.55
2018-08-31T15:27:57.219Z,7.00
2018-08-31T15:30:26.153Z,6.85
2018-08-31T15:32:55.577Z,7.40
2018-08-31T15:35:24.843Z,6.90
2018-08-31T15:37:53.859Z,7.80
2018-08-31T15:40:23.256Z,7.22
2018-08-31T15:42:52.369Z,7.95
2018-08-31T15:45:21.244Z,7.78
2018-08-31T15:47:50.186Z,8.40
2018-08-31T15:50:19.151Z,7.60
2018-08-31T15:52:48.182Z,7.60
2018-08-31T15:55:17.999Z,7.72
2018-08-31T15:57:46.967Z,7.83
2018-08-31T16:00:15.951Z,7.85
2018-08-31T16:02:44.959Z,7.72
2018-08-31T16:05:14.076Z,8.93
2018-08-31T16:07:43.145Z,8.70
2018-08-31T16:10:12.372Z,9.73
2018-08-31T16:12:41.321Z,8.58
2018-08-31T16:15:10.280Z,8.70
2018-08-31T16:17:39.882Z,13.93
2018-08-31T16:20:08.924Z,8.38
2018-08-31T16:22:37.964Z,9.10
2018-08-31T16:25:08.060Z,10.80
2018-08-31T16:27:37.145Z,11.05
2018-08-31T16:30:06.258Z,8.68
2018-08-31T16:32:35.668Z,8.90
2018-08-31T16:35:04.576Z,9.90
2018-08-31T16:37:33.483Z,10.15
2018-08-31T16:40:02.408Z,10.23
2018-08-31T16:42:31.496Z,9.93
2018-08-31T16:45:00.563Z,9.93
2018-08-31T16:47:30.012Z,10.18
2018-08-31T16:49:58.916Z,9.55
2018-08-31T16:52:28.141Z,9.90
2018-08-31T16:54:58.080Z,9.83
2018-08-31T16:57:26.964Z,10.25
2018-08-31T16:59:55.858Z,9.85
2018-08-31T17:02:25.354Z,10.05
2018-08-31T17:04:54.285Z,11.63
2018-08-31T17:07:23.194Z,11.90
2018-08-31T17:09:52.449Z,10.85
2018-08-31T17:12:21.336Z,10.78
2018-08-31T17:14:50.245Z,11.12
2018-08-31T17:17:19.521Z,12.55
2018-08-31T17:19:48.787Z,11.50
2018-08-31T17:22:17.675Z,11.63
2018-08-31T17:24:47.053Z,13.18
2018-08-31T17:27:20.940Z,12.73
2018-08-31T17:29:50.377Z,12.90
2018-08-31T17:32:24.551Z,12.37
2018-08-31T17:34:58.527Z,11.68
2018-08-31T17:37:32.134Z,11.60
2018-08-31T17:40:01.403Z,10.28
2018-08-31T17:42:32.814Z,9.73
2018-08-31T17:45:02.084Z,9.60
2018-08-31T17:47:30.961Z,9.85
2018-08-31T17:50:00.061Z,9.95
2018-08-31T17:52:29.099Z,9.83
2018-08-31T17:54:58.162Z,10.82
2018-08-31T17:57:27.174Z,10.93
2018-08-31T17:59:56.022Z,12.55
2018-08-31T18:02:25.062Z,13.55
2018-08-31T18:04:54.248Z,14.03
2018-08-31T18:07:23.516Z,15.23
2018-08-31T18:09:52.359Z,14.25
2018-08-31T18:12:21.451Z,13.58
2018-08-31T18:14:51.444Z,12.93
2018-08-31T18:17:21.421Z,13.25
2018-08-31T18:19:50.351Z,13.90
2018-08-31T18:22:19.384Z,13.58
2018-08-31T18:24:48.560Z,13.32
2018-08-31T18:27:17.582Z,13.35
2018-08-31T18:29:46.681Z,14.28
2018-08-31T18:32:15.788Z,13.18
2018-08-31T18:34:44.828Z,12.25
2018-08-31T18:37:14.458Z,13.75
2018-08-31T18:39:43.404Z,13.43
2018-08-31T18:42:12.243Z,12.40
2018-08-31T18:44:41.193Z,11.55
2018-08-31T18:47:10.281Z,11.43
2018-08-31T18:49:39.351Z,10.43
2018-08-31T18:52:08.652Z,9.80
2018-08-31T18:54:37.605Z,10.15
2018-08-31T18:57:06.773Z,9.23
2018-08-31T18:59:35.916Z,10.08
2018-08-31T19:02:04.806Z,9.53
2018-08-31T19:04:33.801Z,11.18
2018-08-31T19:07:03.280Z,11.75
2018-08-31T19:09:32.091Z,10.90
2018-08-31T19:12:01.043Z,10.25
2018-08-31T19:14:30.133Z,11.20
2018-08-31T19:16:59.112Z,10.95
2018-08-31T19:19:28.172Z,9.93
2018-08-31T19:21:57.533Z,10.72
2018-08-31T19:24:26.484Z,10.70
2018-08-31T19:26:57.631Z,9.93
2018-08-31T19:29:27.863Z,11.05
2018-08-31T19:31:56.833Z,10.38
2018-08-31T19:34:25.950Z,10.32
2018-08-31T19:36:55.129Z,10.88
2018-08-31T19:39:24.180Z,10.18
2018-08-31T19:41:53.541Z,10.55
2018-08-31T19:44:22.464Z,10.03
2018-08-31T19:46:51.489Z,10.35
2018-08-31T19:49:20.478Z,9.80
2018-08-31T19:51:49.571Z,9.25
2018-08-31T19:54:18.631Z,9.98
2018-08-31T19:56:47.543Z,9.88
2018-08-31T19:59:16.717Z,9.30
2018-08-31T20:01:45.779Z,9.53
2018-08-31T20:04:14.801Z,9.33
2018-08-31T20:06:43.818Z,10.10
2018-08-31T20:09:12.727Z,9.27
2018-08-31T20:11:42.055Z,9.40
2018-08-31T20:14:10.922Z,10.60
2018-08-31T20:16:39.927Z,19.57
2018-08-31T20:19:09.201Z,21.53
2018-08-31T20:21:38.195Z,19.07
2018-08-31T20:24:07.260Z,18.47
2018-08-31T20:26:36.429Z,18.80
2018-08-31T20:29:05.507Z,19.03
2018-08-31T20:31:34.512Z,18.77
2018-08-31T20:34:05.129Z,17.70
2018-08-31T20:36:33.969Z,17.20
2018-08-31T20:39:02.996Z,18.25
2018-08-31T20:41:32.397Z,18.02
2018-08-31T20:44:01.469Z,16.67
2018-08-31T20:46:30.450Z,18.05
2018-08-31T20:48:59.428Z,17.30
2018-08-31T20:51:28.351Z,17.05
2018-08-31T20:53:57.200Z,17.97
2018-08-31T20:56:26.428Z,16.93
2018-08-31T20:58:55.543Z,17.43
2018-08-31T21:01:24.566Z,16.80
2018-08-31T21:03:54.169Z,17.53
2018-08-31T21:06:23.129Z,17.83
2018-08-31T21:08:52.053Z,16.63
2018-08-31T21:11:21.567Z,18.23
2018-08-31T21:13:50.768Z,17.03
2018-08-31T21:16:23.291Z,17.20
2018-08-31T21:18:52.301Z,16.67
2018-08-31T21:21:24.697Z,17.80
2018-08-31T21:23:53.650Z,16.43
2018-08-31T21:26:22.638Z,16.67
2018-08-31T21:28:52.352Z,17.17
2018-08-31T21:31:21.236Z,16.23
2018-08-31T21:33:50.202Z,16.43
2018-08-31T21:36:19.404Z,15.97
2018-08-31T21:38:48.373Z,15.40
2018-08-31T21:41:17.657Z,16.07
2018-08-31T21:43:46.741Z,15.03
2018-08-31T21:46:15.757Z,15.63
2018-08-31T21:48:44.691Z,14.17
2018-08-31T21:51:14.631Z,15.43
2018-08-31T21:53:43.996Z,15.30
2018-08-31T21:56:13.013Z,15.47
2018-08-31T21:58:42.406Z,15.03
2018-08-31T22:01:16.593Z,14.57
2018-08-31T22:03:45.979Z,14.33
2018-08-31T22:06:14.902Z,14.13
2018-08-31T22:08:44.325Z,15.07
2018-08-31T22:11:13.639Z,15.33
2018-08-31T22:13:42.578Z,14.70
2018-08-31T22:16:11.815Z,14.80
2018-08-31T22:18:40.989Z,15.30
2018-08-31T22:21:10.152Z,15.13
2018-08-31T22:23:39.076Z,14.77
2018-08-31T22:26:08.425Z,14.13
2018-08-31T22:28:37.354Z,14.83
2018-08-31T22:31:06.439Z,14.93
2018-08-31T22:33:35.441Z,15.80
2018-08-31T22:36:04.549Z,14.37
2018-08-31T22:38:33.557Z,13.60
2018-08-31T22:41:02.653Z,14.03
2018-08-31T22:43:36.804Z,14.43
2018-08-31T22:46:05.819Z,14.07
2018-08-31T22:48:34.751Z,12.97
2018-08-31T22:51:03.573Z,11.87
2018-08-31T22:53:32.773Z,11.93
2018-08-31T22:56:01.577Z,10.57
2018-08-31T22:58:30.733Z,11.97
2018-08-31T23:01:00.024Z,11.13
2018-08-31T23:03:28.876Z,11.00
2018-08-31T23:05:57.855Z,10.57
2018-08-31T23:08:26.997Z,11.53
2018-08-31T23:10:55.940Z,10.83
2018-08-31T23:13:24.879Z,11.23
2018-08-31T23:15:54.149Z,10.87
2018-08-31T23:18:23.112Z,10.57
2018-08-31T23:20:52.167Z,11.97
2018-08-31T23:23:26.703Z,12.33
2018-08-31T23:25:55.716Z,12.13
2018-08-31T23:28:24.881Z,12.73
2018-08-31T23:30:53.928Z,12.77
2018-08-31T23:33:23.196Z,12.63
2018-08-31T23:35:52.303Z,13.13
2018-08-31T23:38:21.376Z,11.93
2018-08-31T23:40:50.408Z,12.37
2018-08-31T23:43:19.342Z,12.67
2018-08-31T23:45:48.618Z,12.80
2018-08-31T23:48:17.908Z,12.43
2018-08-31T23:50:46.837Z,11.93
2018-08-31T23:53:16.268Z,12.37
2018-08-31T23:55:45.153Z,12.47
2018-08-31T23:59:17.561Z,12.40
